sensor_id;sensor_type;location;lat;lon;timestamp;P1;durP1;ratioP1;P2;durP2;ratioP2
12976;SDS011;6553;48.412;9.514;2023-06-10T00:01:57;4.20;;;3.85;;
12976;SDS011;6553;48.412;9.514;2023-06-10T00:04:23;3.95;;;3.65;;
12976;SDS011;6553;48.412;9.514;2023-06-10T00:06:48;3.72;;;3.42;;
12976;SDS011;6553;48.412;9.514;2023-06-10T00:09:14;4.50;;;4.20;;
12976;SDS011;6553;48.412;9.514;2023-06-10T00:11:40;3.95;;;3.65;;
12976;SDS011;6553;48.412;9.514;2023-06-10T00:14:07;3.90;;;3.60;;
12976;SDS011;6553;48.412;9.514;2023-06-10T00:16:33;4.00;;;3.70;;
12976;SDS011;6553;48.412;9.514;2023-06-10T00:19:01;3.80;;;3.50;;
12976;SDS011;6553;48.412;9.514;2023-06-10T00:21:29;3.70;;;3.50;;
12976;SDS011;6553;48.412;9.514;2023-06-10T00:26:39;4.30;;;3.90;;
12976;SDS011;6553;48.412;9.514;2023-06-10T00:29:06;4.10;;;3.75;;
12976;SDS011;6553;48.412;9.514;2023-06-10T00:31:36;3.97;;;3.67;;
12976;SDS011;6553;48.412;9.514;2023-06-10T00:34:05;4.00;;;3.70;;
12976;SDS011;6553;48.412;9.514;2023-06-10T00:36:32;4.18;;;3.88;;
12976;SDS011;6553;48.412;9.514;2023-06-10T00:38:58;4.20;;;3.90;;
12976;SDS011;6553;48.412;9.514;2023-06-10T00:41:24;4.00;;;3.70;;
12976;SDS011;6553;48.412;9.514;2023-06-10T00:43:53;3.80;;;3.50;;
12976;SDS011;6553;48.412;9.514;2023-06-10T00:46:20;3.88;;;3.58;;
12976;SDS011;6553;48.412;9.514;2023-06-10T00:48:48;3.78;;;3.47;;
12976;SDS011;6553;48.412;9.514;2023-06-10T00:51:14;4.40;;;4.10;;
12976;SDS011;6553;48.412;9.514;2023-06-10T00:53:41;4.00;;;3.70;;
12976;SDS011;6553;48.412;9.514;2023-06-10T00:56:08;4.30;;;4.00;;
12976;SDS011;6553;48.412;9.514;2023-06-10T00:58:35;3.95;;;3.65;;
12976;SDS011;6553;48.412;9.514;2023-06-10T01:01:01;3.63;;;3.40;;
12976;SDS011;6553;48.412;9.514;2023-06-10T01:03:29;3.67;;;3.38;;
12976;SDS011;6553;48.412;9.514;2023-06-10T01:06:00;4.00;;;3.70;;
12976;SDS011;6553;48.412;9.514;2023-06-10T01:08:45;3.92;;;3.65;;
12976;SDS011;6553;48.412;9.514;2023-06-10T01:11:21;4.00;;;3.70;;
12976;SDS011;6553;48.412;9.514;2023-06-10T01:13:59;3.75;;;3.53;;
12976;SDS011;6553;48.412;9.514;2023-06-10T01:16:25;3.78;;;3.47;;
12976;SDS011;6553;48.412;9.514;2023-06-10T01:18:53;3.92;;;3.63;;
12976;SDS011;6553;48.412;9.514;2023-06-10T01:21:20;3.90;;;3.60;;
12976;SDS011;6553;48.412;9.514;2023-06-10T01:23:49;3.90;;;3.60;;
12976;SDS011;6553;48.412;9.514;2023-06-10T01:26:17;3.67;;;3.38;;
12976;SDS011;6553;48.412;9.514;2023-06-10T01:29:02;3.90;;;3.63;;
12976;SDS011;6553;48.412;9.514;2023-06-10T01:31:41;3.72;;;3.42;;
12976;SDS011;6553;48.412;9.514;2023-06-10T01:34:17;4.00;;;3.70;;
12976;SDS011;6553;48.412;9.514;2023-06-10T01:36:46;4.20;;;3.88;;
12976;SDS011;6553;48.412;9.514;2023-06-10T01:39:15;3.80;;;3.50;;
12976;SDS011;6553;48.412;9.514;2023-06-10T01:41:43;4.07;;;3.78;;
12976;SDS011;6553;48.412;9.514;2023-06-10T01:44:10;4.18;;;3.88;;
12976;SDS011;6553;48.412;9.514;2023-06-10T01:46:38;3.80;;;3.50;;
12976;SDS011;6553;48.412;9.514;2023-06-10T01:49:04;4.47;;;4.07;;
12976;SDS011;6553;48.412;9.514;2023-06-10T01:51:30;4.00;;;3.70;;
12976;SDS011;6553;48.412;9.514;2023-06-10T01:53:56;4.13;;;3.83;;
12976;SDS011;6553;48.412;9.514;2023-06-10T01:56:22;4.57;;;4.28;;
12976;SDS011;6553;48.412;9.514;2023-06-10T01:58:48;4.25;;;3.95;;
12976;SDS011;6553;48.412;9.514;2023-06-10T02:01:14;3.95;;;3.70;;
12976;SDS011;6553;48.412;9.514;2023-06-10T02:03:39;4.00;;;3.70;;
12976;SDS011;6553;48.412;9.514;2023-06-10T02:06:06;3.95;;;3.65;;
12976;SDS011;6553;48.412;9.514;2023-06-10T02:08:31;4.30;;;4.00;;
12976;SDS011;6553;48.412;9.514;2023-06-10T02:10:59;4.22;;;3.92;;
12976;SDS011;6553;48.412;9.514;2023-06-10T02:13:27;4.20;;;3.90;;
12976;SDS011;6553;48.412;9.514;2023-06-10T02:15:53;3.63;;;3.42;;
12976;SDS011;6553;48.412;9.514;2023-06-10T02:18:19;4.03;;;3.70;;
12976;SDS011;6553;48.412;9.514;2023-06-10T02:20:46;3.92;;;3.63;;
12976;SDS011;6553;48.412;9.514;2023-06-10T02:23:11;3.30;;;3.10;;
12976;SDS011;6553;48.412;9.514;2023-06-10T02:25:37;3.67;;;3.40;;
12976;SDS011;6553;48.412;9.514;2023-06-10T02:28:03;3.83;;;3.53;;
12976;SDS011;6553;48.412;9.514;2023-06-10T02:30:29;3.63;;;3.42;;
12976;SDS011;6553;48.412;9.514;2023-06-10T02:32:55;4.07;;;3.78;;
12976;SDS011;6553;48.412;9.514;2023-06-10T02:35:23;3.75;;;3.53;;
12976;SDS011;6553;48.412;9.514;2023-06-10T02:37:50;4.30;;;4.00;;
12976;SDS011;6553;48.412;9.514;2023-06-10T02:40:17;3.85;;;3.55;;
12976;SDS011;6553;48.412;9.514;2023-06-10T02:42:43;4.20;;;3.90;;
12976;SDS011;6553;48.412;9.514;2023-06-10T02:45:10;3.95;;;3.65;;
12976;SDS011;6553;48.412;9.514;2023-06-10T02:47:41;4.22;;;3.92;;
12976;SDS011;6553;48.412;9.514;2023-06-10T02:50:08;3.72;;;3.47;;
12976;SDS011;6553;48.412;9.514;2023-06-10T02:52:41;4.38;;;4.07;;
12976;SDS011;6553;48.412;9.514;2023-06-10T02:55:07;4.03;;;3.72;;
12976;SDS011;6553;48.412;9.514;2023-06-10T02:57:33;4.15;;;3.85;;
12976;SDS011;6553;48.412;9.514;2023-06-10T03:00:01;3.90;;;3.60;;
12976;SDS011;6553;48.412;9.514;2023-06-10T03:02:30;4.65;;;4.25;;
12976;SDS011;6553;48.412;9.514;2023-06-10T03:04:57;4.40;;;4.10;;
12976;SDS011;6553;48.412;9.514;2023-06-10T03:07:23;3.90;;;3.60;;
12976;SDS011;6553;48.412;9.514;2023-06-10T03:09:51;4.13;;;3.80;;
12976;SDS011;6553;48.412;9.514;2023-06-10T03:12:18;4.07;;;3.72;;
12976;SDS011;6553;48.412;9.514;2023-06-10T03:14:46;4.07;;;3.67;;
12976;SDS011;6553;48.412;9.514;2023-06-10T03:17:12;4.03;;;3.72;;
12976;SDS011;6553;48.412;9.514;2023-06-10T03:19:40;3.78;;;3.53;;
12976;SDS011;6553;48.412;9.514;2023-06-10T03:22:14;4.05;;;3.75;;
12976;SDS011;6553;48.412;9.514;2023-06-10T03:24:51;4.07;;;3.67;;
12976;SDS011;6553;48.412;9.514;2023-06-10T03:27:18;4.53;;;4.18;;
12976;SDS011;6553;48.412;9.514;2023-06-10T03:29:48;3.78;;;3.47;;
12976;SDS011;6553;48.412;9.514;2023-06-10T03:32:15;4.15;;;3.85;;
12976;SDS011;6553;48.412;9.514;2023-06-10T03:34:41;3.92;;;3.63;;
12976;SDS011;6553;48.412;9.514;2023-06-10T03:37:08;4.13;;;3.83;;
12976;SDS011;6553;48.412;9.514;2023-06-10T03:39:34;4.55;;;4.20;;
12976;SDS011;6553;48.412;9.514;2023-06-10T03:42:01;4.13;;;3.83;;
12976;SDS011;6553;48.412;9.514;2023-06-10T03:44:28;4.07;;;3.78;;
12976;SDS011;6553;48.412;9.514;2023-06-10T03:46:54;3.45;;;3.25;;
12976;SDS011;6553;48.412;9.514;2023-06-10T03:49:21;4.15;;;3.85;;
12976;SDS011;6553;48.412;9.514;2023-06-10T03:51:52;3.63;;;3.42;;
12976;SDS011;6553;48.412;9.514;2023-06-10T03:54:19;3.70;;;3.50;;
12976;SDS011;6553;48.412;9.514;2023-06-10T03:56:46;3.92;;;3.63;;
12976;SDS011;6553;48.412;9.514;2023-06-10T03:59:13;3.63;;;3.38;;
12976;SDS011;6553;48.412;9.514;2023-06-10T04:01:39;3.97;;;3.67;;
12976;SDS011;6553;48.412;9.514;2023-06-10T04:04:06;3.88;;;3.67;;
12976;SDS011;6553;48.412;9.514;2023-06-10T04:06:33;4.18;;;3.83;;
12976;SDS011;6553;48.412;9.514;2023-06-10T04:08:59;4.00;;;3.70;;
12976;SDS011;6553;48.412;9.514;2023-06-10T04:11:27;4.15;;;3.85;;
12976;SDS011;6553;48.412;9.514;2023-06-10T04:13:55;4.20;;;3.90;;
12976;SDS011;6553;48.412;9.514;2023-06-10T04:16:21;3.97;;;3.67;;
12976;SDS011;6553;48.412;9.514;2023-06-10T04:18:48;4.22;;;3.92;;
12976;SDS011;6553;48.412;9.514;2023-06-10T04:21:15;4.25;;;3.95;;
12976;SDS011;6553;48.412;9.514;2023-06-10T04:23:41;3.97;;;3.67;;
12976;SDS011;6553;48.412;9.514;2023-06-10T04:26:08;4.03;;;3.72;;
12976;SDS011;6553;48.412;9.514;2023-06-10T04:28:36;4.15;;;3.85;;
12976;SDS011;6553;48.412;9.514;2023-06-10T04:31:01;4.10;;;3.80;;
12976;SDS011;6553;48.412;9.514;2023-06-10T04:33:32;3.83;;;3.53;;
12976;SDS011;6553;48.412;9.514;2023-06-10T04:36:00;4.50;;;4.18;;
12976;SDS011;6553;48.412;9.514;2023-06-10T04:38:29;3.85;;;3.55;;
12976;SDS011;6553;48.412;9.514;2023-06-10T04:40:57;3.80;;;3.50;;
12976;SDS011;6553;48.412;9.514;2023-06-10T04:43:24;3.83;;;3.53;;
12976;SDS011;6553;48.412;9.514;2023-06-10T04:45:50;4.10;;;3.80;;
12976;SDS011;6553;48.412;9.514;2023-06-10T04:48:16;4.25;;;3.95;;
12976;SDS011;6553;48.412;9.514;2023-06-10T04:50:42;3.70;;;3.40;;
12976;SDS011;6553;48.412;9.514;2023-06-10T04:53:09;4.10;;;3.80;;
12976;SDS011;6553;48.412;9.514;2023-06-10T04:55:37;4.07;;;3.78;;
12976;SDS011;6553;48.412;9.514;2023-06-10T04:58:02;4.22;;;3.92;;
12976;SDS011;6553;48.412;9.514;2023-06-10T05:00:28;3.50;;;3.30;;
12976;SDS011;6553;48.412;9.514;2023-06-10T05:02:54;4.15;;;3.85;;
12976;SDS011;6553;48.412;9.514;2023-06-10T05:05:21;4.00;;;3.70;;
12976;SDS011;6553;48.412;9.514;2023-06-10T05:07:47;4.00;;;3.70;;
12976;SDS011;6553;48.412;9.514;2023-06-10T05:10:13;4.45;;;4.13;;
12976;SDS011;6553;48.412;9.514;2023-06-10T05:12:39;4.07;;;3.78;;
12976;SDS011;6553;48.412;9.514;2023-06-10T05:15:06;4.03;;;3.72;;
12976;SDS011;6553;48.412;9.514;2023-06-10T05:17:33;3.92;;;3.63;;
12976;SDS011;6553;48.412;9.514;2023-06-10T05:20:02;4.35;;;4.05;;
12976;SDS011;6553;48.412;9.514;2023-06-10T05:22:29;4.40;;;4.00;;
12976;SDS011;6553;48.412;9.514;2023-06-10T05:24:55;4.18;;;3.88;;
12976;SDS011;6553;48.412;9.514;2023-06-10T05:27:21;3.72;;;3.42;;
12976;SDS011;6553;48.412;9.514;2023-06-10T05:29:47;4.50;;;3.92;;
12976;SDS011;6553;48.412;9.514;2023-06-10T05:32:13;3.92;;;3.63;;
12976;SDS011;6553;48.412;9.514;2023-06-10T05:34:38;4.28;;;3.97;;
12976;SDS011;6553;48.412;9.514;2023-06-10T05:37:04;3.95;;;3.65;;
12976;SDS011;6553;48.412;9.514;2023-06-10T05:39:30;4.30;;;4.00;;
12976;SDS011;6553;48.412;9.514;2023-06-10T05:41:56;4.07;;;3.78;;
12976;SDS011;6553;48.412;9.514;2023-06-10T05:44:24;4.30;;;4.00;;
12976;SDS011;6553;48.412;9.514;2023-06-10T05:46:50;4.40;;;4.00;;
12976;SDS011;6553;48.412;9.514;2023-06-10T05:49:16;3.70;;;3.50;;
12976;SDS011;6553;48.412;9.514;2023-06-10T05:51:42;4.22;;;3.92;;
12976;SDS011;6553;48.412;9.514;2023-06-10T05:54:07;4.20;;;3.90;;
12976;SDS011;6553;48.412;9.514;2023-06-10T05:56:33;3.55;;;3.35;;
12976;SDS011;6553;48.412;9.514;2023-06-10T05:58:59;4.35;;;4.05;;
12976;SDS011;6553;48.412;9.514;2023-06-10T06:01:25;4.38;;;4.07;;
12976;SDS011;6553;48.412;9.514;2023-06-10T06:03:50;3.95;;;3.65;;
12976;SDS011;6553;48.412;9.514;2023-06-10T06:06:16;4.38;;;4.07;;
12976;SDS011;6553;48.412;9.514;2023-06-10T06:08:42;4.57;;;4.20;;
12976;SDS011;6553;48.412;9.514;2023-06-10T06:11:07;4.28;;;3.97;;
12976;SDS011;6553;48.412;9.514;2023-06-10T06:13:33;4.00;;;3.70;;
12976;SDS011;6553;48.412;9.514;2023-06-10T06:15:59;4.13;;;3.83;;
12976;SDS011;6553;48.412;9.514;2023-06-10T06:18:24;3.95;;;3.65;;
12976;SDS011;6553;48.412;9.514;2023-06-10T06:20:50;4.25;;;3.95;;
12976;SDS011;6553;48.412;9.514;2023-06-10T06:23:16;4.10;;;3.80;;
12976;SDS011;6553;48.412;9.514;2023-06-10T06:25:42;4.07;;;3.78;;
12976;SDS011;6553;48.412;9.514;2023-06-10T06:28:07;3.95;;;3.65;;
12976;SDS011;6553;48.412;9.514;2023-06-10T06:30:35;4.00;;;3.70;;
12976;SDS011;6553;48.412;9.514;2023-06-10T06:33:01;3.75;;;3.55;;
12976;SDS011;6553;48.412;9.514;2023-06-10T06:35:27;4.13;;;3.83;;
12976;SDS011;6553;48.412;9.514;2023-06-10T06:37:56;4.18;;;3.78;;
12976;SDS011;6553;48.412;9.514;2023-06-10T06:40:26;4.00;;;3.70;;
12976;SDS011;6553;48.412;9.514;2023-06-10T06:42:51;4.15;;;3.85;;
12976;SDS011;6553;48.412;9.514;2023-06-10T06:45:43;4.10;;;3.80;;
12976;SDS011;6553;48.412;9.514;2023-06-10T06:48:08;4.03;;;3.72;;
12976;SDS011;6553;48.412;9.514;2023-06-10T06:50:34;3.97;;;3.67;;
12976;SDS011;6553;48.412;9.514;2023-06-10T06:53:00;4.53;;;4.22;;
12976;SDS011;6553;48.412;9.514;2023-06-10T06:55:26;4.32;;;4.03;;
12976;SDS011;6553;48.412;9.514;2023-06-10T06:57:51;4.00;;;3.70;;
12976;SDS011;6553;48.412;9.514;2023-06-10T07:00:17;4.30;;;4.00;;
12976;SDS011;6553;48.412;9.514;2023-06-10T07:02:43;4.32;;;4.03;;
12976;SDS011;6553;48.412;9.514;2023-06-10T07:05:09;3.97;;;3.67;;
12976;SDS011;6553;48.412;9.514;2023-06-10T07:07:35;4.32;;;4.03;;
12976;SDS011;6553;48.412;9.514;2023-06-10T07:10:02;4.32;;;3.92;;
12976;SDS011;6553;48.412;9.514;2023-06-10T07:12:28;4.10;;;3.80;;
12976;SDS011;6553;48.412;9.514;2023-06-10T07:14:55;4.05;;;3.75;;
12976;SDS011;6553;48.412;9.514;2023-06-10T07:17:21;4.20;;;3.90;;
12976;SDS011;6553;48.412;9.514;2023-06-10T07:19:47;4.20;;;3.90;;
12976;SDS011;6553;48.412;9.514;2023-06-10T07:22:14;4.40;;;4.10;;
12976;SDS011;6553;48.412;9.514;2023-06-10T07:24:40;4.13;;;3.83;;
12976;SDS011;6553;48.412;9.514;2023-06-10T07:27:06;4.38;;;4.07;;
12976;SDS011;6553;48.412;9.514;2023-06-10T07:29:32;4.57;;;4.28;;
12976;SDS011;6553;48.412;9.514;2023-06-10T07:31:58;4.35;;;3.97;;
12976;SDS011;6553;48.412;9.514;2023-06-10T07:34:23;4.07;;;3.78;;
12976;SDS011;6553;48.412;9.514;2023-06-10T07:36:49;4.38;;;4.07;;
12976;SDS011;6553;48.412;9.514;2023-06-10T07:39:15;4.32;;;4.03;;
12976;SDS011;6553;48.412;9.514;2023-06-10T07:41:41;4.43;;;4.10;;
12976;SDS011;6553;48.412;9.514;2023-06-10T07:44:06;4.05;;;3.75;;
12976;SDS011;6553;48.412;9.514;2023-06-10T07:46:32;4.40;;;4.10;;
12976;SDS011;6553;48.412;9.514;2023-06-10T07:48:58;4.20;;;3.90;;
12976;SDS011;6553;48.412;9.514;2023-06-10T07:51:24;4.30;;;4.00;;
12976;SDS011;6553;48.412;9.514;2023-06-10T07:53:49;4.18;;;3.88;;
12976;SDS011;6553;48.412;9.514;2023-06-10T07:56:15;4.32;;;4.03;;
12976;SDS011;6553;48.412;9.514;2023-06-10T07:58:41;4.50;;;4.10;;
12976;SDS011;6553;48.412;9.514;2023-06-10T08:01:07;4.43;;;4.13;;
12976;SDS011;6553;48.412;9.514;2023-06-10T08:03:33;4.43;;;4.13;;
12976;SDS011;6553;48.412;9.514;2023-06-10T08:05:59;4.43;;;4.03;;
12976;SDS011;6553;48.412;9.514;2023-06-10T08:08:25;4.60;;;4.30;;
12976;SDS011;6553;48.412;9.514;2023-06-10T08:10:50;4.20;;;3.90;;
12976;SDS011;6553;48.412;9.514;2023-06-10T08:13:16;3.95;;;3.65;;
12976;SDS011;6553;48.412;9.514;2023-06-10T08:15:42;4.18;;;3.88;;
12976;SDS011;6553;48.412;9.514;2023-06-10T08:18:08;4.30;;;3.95;;
12976;SDS011;6553;48.412;9.514;2023-06-10T08:20:33;4.45;;;4.15;;
12976;SDS011;6553;48.412;9.514;2023-06-10T08:22:59;4.32;;;4.03;;
12976;SDS011;6553;48.412;9.514;2023-06-10T08:25:25;4.40;;;4.10;;
12976;SDS011;6553;48.412;9.514;2023-06-10T08:27:51;4.35;;;3.83;;
12976;SDS011;6553;48.412;9.514;2023-06-10T08:30:17;4.28;;;3.97;;
12976;SDS011;6553;48.412;9.514;2023-06-10T08:32:43;4.30;;;3.90;;
12976;SDS011;6553;48.412;9.514;2023-06-10T08:35:09;4.43;;;4.05;;
12976;SDS011;6553;48.412;9.514;2023-06-10T08:37:34;4.65;;;4.30;;
12976;SDS011;6553;48.412;9.514;2023-06-10T08:40:00;4.25;;;3.95;;
12976;SDS011;6553;48.412;9.514;2023-06-10T08:45:17;4.40;;;4.00;;
12976;SDS011;6553;48.412;9.514;2023-06-10T08:47:44;4.20;;;3.90;;
12976;SDS011;6553;48.412;9.514;2023-06-10T08:50:16;4.20;;;3.90;;
12976;SDS011;6553;48.412;9.514;2023-06-10T08:52:44;3.85;;;3.55;;
12976;SDS011;6553;48.412;9.514;2023-06-10T08:55:14;4.20;;;3.90;;
12976;SDS011;6553;48.412;9.514;2023-06-10T08:57:51;4.07;;;3.75;;
12976;SDS011;6553;48.412;9.514;2023-06-10T09:00:19;4.28;;;3.97;;
12976;SDS011;6553;48.412;9.514;2023-06-10T09:02:45;4.22;;;3.92;;
12976;SDS011;6553;48.412;9.514;2023-06-10T09:05:11;4.13;;;3.83;;
12976;SDS011;6553;48.412;9.514;2023-06-10T09:07:39;4.70;;;3.95;;
12976;SDS011;6553;48.412;9.514;2023-06-10T09:10:05;4.43;;;4.03;;
12976;SDS011;6553;48.412;9.514;2023-06-10T09:12:35;4.28;;;3.97;;
12976;SDS011;6553;48.412;9.514;2023-06-10T09:15:03;3.92;;;3.63;;
12976;SDS011;6553;48.412;9.514;2023-06-10T09:17:30;4.10;;;3.80;;
12976;SDS011;6553;48.412;9.514;2023-06-10T09:19:56;3.88;;;3.63;;
12976;SDS011;6553;48.412;9.514;2023-06-10T09:22:23;4.32;;;4.03;;
12976;SDS011;6553;48.412;9.514;2023-06-10T09:24:49;4.15;;;3.75;;
12976;SDS011;6553;48.412;9.514;2023-06-10T09:27:15;4.50;;;4.10;;
12976;SDS011;6553;48.412;9.514;2023-06-10T09:29:48;4.18;;;3.88;;
12976;SDS011;6553;48.412;9.514;2023-06-10T09:32:18;4.93;;;4.03;;
12976;SDS011;6553;48.412;9.514;2023-06-10T09:34:45;4.65;;;4.25;;
12976;SDS011;6553;48.412;9.514;2023-06-10T09:37:12;4.28;;;3.97;;
12976;SDS011;6553;48.412;9.514;2023-06-10T09:39:39;3.95;;;3.65;;
12976;SDS011;6553;48.412;9.514;2023-06-10T09:42:18;4.20;;;3.88;;
12976;SDS011;6553;48.412;9.514;2023-06-10T09:44:50;3.70;;;3.40;;
12976;SDS011;6553;48.412;9.514;2023-06-10T09:47:20;3.90;;;3.60;;
12976;SDS011;6553;48.412;9.514;2023-06-10T09:49:51;3.90;;;3.58;;
12976;SDS011;6553;48.412;9.514;2023-06-10T09:52:22;3.60;;;3.30;;
12976;SDS011;6553;48.412;9.514;2023-06-10T09:54:50;4.10;;;3.80;;
12976;SDS011;6553;48.412;9.514;2023-06-10T09:57:17;4.07;;;3.78;;
12976;SDS011;6553;48.412;9.514;2023-06-10T09:59:47;4.25;;;3.90;;
12976;SDS011;6553;48.412;9.514;2023-06-10T10:02:13;4.20;;;3.75;;
12976;SDS011;6553;48.412;9.514;2023-06-10T10:04:43;3.72;;;3.45;;
12976;SDS011;6553;48.412;9.514;2023-06-10T10:07:10;4.10;;;3.80;;
12976;SDS011;6553;48.412;9.514;2023-06-10T10:09:37;4.53;;;4.13;;
12976;SDS011;6553;48.412;9.514;2023-06-10T10:12:06;4.38;;;3.97;;
12976;SDS011;6553;48.412;9.514;2023-06-10T10:14:36;4.35;;;3.88;;
12976;SDS011;6553;48.412;9.514;2023-06-10T10:17:07;4.32;;;3.92;;
12976;SDS011;6553;48.412;9.514;2023-06-10T10:19:50;4.00;;;3.70;;
12976;SDS011;6553;48.412;9.514;2023-06-10T10:22:25;3.95;;;3.65;;
12976;SDS011;6553;48.412;9.514;2023-06-10T10:24:57;4.25;;;3.95;;
12976;SDS011;6553;48.412;9.514;2023-06-10T10:27:35;3.90;;;3.50;;
12976;SDS011;6553;48.412;9.514;2023-06-10T10:30:07;4.18;;;3.78;;
12976;SDS011;6553;48.412;9.514;2023-06-10T10:32:55;4.55;;;4.20;;
12976;SDS011;6553;48.412;9.514;2023-06-10T10:35:26;4.45;;;4.03;;
12976;SDS011;6553;48.412;9.514;2023-06-10T10:37:52;4.00;;;3.70;;
12976;SDS011;6553;48.412;9.514;2023-06-10T10:40:22;4.30;;;3.92;;
12976;SDS011;6553;48.412;9.514;2023-06-10T10:42:50;4.30;;;4.00;;
12976;SDS011;6553;48.412;9.514;2023-06-10T10:45:17;3.85;;;3.55;;
12976;SDS011;6553;48.412;9.514;2023-06-10T10:47:44;3.88;;;3.58;;
12976;SDS011;6553;48.412;9.514;2023-06-10T10:50:14;3.97;;;3.67;;
12976;SDS011;6553;48.412;9.514;2023-06-10T10:52:55;4.53;;;4.15;;
12976;SDS011;6553;48.412;9.514;2023-06-10T10:55:26;4.57;;;3.65;;
12976;SDS011;6553;48.412;9.514;2023-06-10T10:58:02;4.22;;;3.85;;
12976;SDS011;6553;48.412;9.514;2023-06-10T11:00:31;4.05;;;3.75;;
12976;SDS011;6553;48.412;9.514;2023-06-10T11:03:15;4.10;;;3.80;;
12976;SDS011;6553;48.412;9.514;2023-06-10T11:05:43;4.70;;;3.70;;
12976;SDS011;6553;48.412;9.514;2023-06-10T11:10:57;3.92;;;3.70;;
12976;SDS011;6553;48.412;9.514;2023-06-10T11:13:23;3.88;;;3.50;;
12976;SDS011;6553;48.412;9.514;2023-06-10T11:15:52;4.50;;;4.13;;
12976;SDS011;6553;48.412;9.514;2023-06-10T11:18:26;4.07;;;3.78;;
12976;SDS011;6553;48.412;9.514;2023-06-10T11:20:57;4.43;;;4.03;;
12976;SDS011;6553;48.412;9.514;2023-06-10T11:31:24;4.25;;;3.85;;
12976;SDS011;6553;48.412;9.514;2023-06-10T11:33:52;4.60;;;4.30;;
12976;SDS011;6553;48.412;9.514;2023-06-10T11:36:20;4.47;;;4.07;;
12976;SDS011;6553;48.412;9.514;2023-06-10T11:38:46;4.30;;;3.95;;
12976;SDS011;6553;48.412;9.514;2023-06-10T11:41:16;4.50;;;4.15;;
12976;SDS011;6553;48.412;9.514;2023-06-10T11:43:46;4.50;;;4.18;;
12976;SDS011;6553;48.412;9.514;2023-06-10T11:46:12;4.78;;;4.22;;
12976;SDS011;6553;48.412;9.514;2023-06-10T11:48:39;4.20;;;3.90;;
12976;SDS011;6553;48.412;9.514;2023-06-10T11:51:16;4.10;;;3.80;;
12976;SDS011;6553;48.412;9.514;2023-06-10T11:53:46;4.13;;;3.83;;
12976;SDS011;6553;48.412;9.514;2023-06-10T11:56:25;4.13;;;3.83;;
12976;SDS011;6553;48.412;9.514;2023-06-10T11:59:02;4.63;;;4.05;;
12976;SDS011;6553;48.412;9.514;2023-06-10T12:01:33;4.30;;;4.00;;
12976;SDS011;6553;48.412;9.514;2023-06-10T12:04:05;3.55;;;3.35;;
12976;SDS011;6553;48.412;9.514;2023-06-10T12:06:43;4.20;;;3.90;;
12976;SDS011;6553;48.412;9.514;2023-06-10T12:09:21;3.90;;;3.60;;
12976;SDS011;6553;48.412;9.514;2023-06-10T12:11:57;4.07;;;3.78;;
12976;SDS011;6553;48.412;9.514;2023-06-10T12:20:03;4.20;;;3.90;;
12976;SDS011;6553;48.412;9.514;2023-06-10T12:22:49;3.80;;;3.53;;
12976;SDS011;6553;48.412;9.514;2023-06-10T12:25:14;4.10;;;3.80;;
12976;SDS011;6553;48.412;9.514;2023-06-10T12:27:41;3.45;;;3.17;;
12976;SDS011;6553;48.412;9.514;2023-06-10T12:30:23;4.20;;;3.90;;
12976;SDS011;6553;48.412;9.514;2023-06-10T12:32:51;4.15;;;3.80;;
12976;SDS011;6553;48.412;9.514;2023-06-10T12:35:21;4.95;;;3.90;;
12976;SDS011;6553;48.412;9.514;2023-06-10T12:40:36;5.28;;;3.90;;
12976;SDS011;6553;48.412;9.514;2023-06-10T12:43:05;3.90;;;3.55;;
12976;SDS011;6553;48.412;9.514;2023-06-10T12:45:33;3.78;;;3.47;;
12976;SDS011;6553;48.412;9.514;2023-06-10T12:48:07;3.90;;;3.60;;
12976;SDS011;6553;48.412;9.514;2023-06-10T12:50:52;4.20;;;3.80;;
12976;SDS011;6553;48.412;9.514;2023-06-10T12:53:21;4.63;;;3.50;;
12976;SDS011;6553;48.412;9.514;2023-06-10T12:55:48;4.10;;;3.80;;
12976;SDS011;6553;48.412;9.514;2023-06-10T12:58:15;3.90;;;3.60;;
12976;SDS011;6553;48.412;9.514;2023-06-10T13:00:42;3.72;;;3.45;;
12976;SDS011;6553;48.412;9.514;2023-06-10T13:03:08;3.75;;;3.45;;
12976;SDS011;6553;48.412;9.514;2023-06-10T13:05:35;3.90;;;3.60;;
12976;SDS011;6553;48.412;9.514;2023-06-10T13:08:03;4.15;;;3.85;;
12976;SDS011;6553;48.412;9.514;2023-06-10T13:10:32;4.28;;;3.90;;
12976;SDS011;6553;48.412;9.514;2023-06-10T13:12:59;3.75;;;3.45;;
12976;SDS011;6553;48.412;9.514;2023-06-10T13:15:26;3.95;;;3.65;;
12976;SDS011;6553;48.412;9.514;2023-06-10T13:17:52;4.00;;;3.70;;
12976;SDS011;6553;48.412;9.514;2023-06-10T13:20:18;4.50;;;4.07;;
12976;SDS011;6553;48.412;9.514;2023-06-10T13:22:45;3.97;;;3.67;;
12976;SDS011;6553;48.412;9.514;2023-06-10T13:25:12;4.40;;;4.05;;
12976;SDS011;6553;48.412;9.514;2023-06-10T13:27:38;3.72;;;3.42;;
12976;SDS011;6553;48.412;9.514;2023-06-10T13:30:08;4.10;;;3.80;;
12976;SDS011;6553;48.412;9.514;2023-06-10T13:32:36;4.00;;;3.70;;
12976;SDS011;6553;48.412;9.514;2023-06-10T13:35:02;4.15;;;3.85;;
12976;SDS011;6553;48.412;9.514;2023-06-10T13:37:28;4.13;;;3.83;;
12976;SDS011;6553;48.412;9.514;2023-06-10T13:39:54;4.10;;;3.72;;
12976;SDS011;6553;48.412;9.514;2023-06-10T13:42:20;4.53;;;4.22;;
12976;SDS011;6553;48.412;9.514;2023-06-10T13:44:47;4.30;;;3.90;;
12976;SDS011;6553;48.412;9.514;2023-06-10T13:47:14;3.92;;;3.63;;
12976;SDS011;6553;48.412;9.514;2023-06-10T13:49:40;4.30;;;4.00;;
12976;SDS011;6553;48.412;9.514;2023-06-10T13:52:06;4.05;;;3.63;;
12976;SDS011;6553;48.412;9.514;2023-06-10T13:54:33;4.05;;;3.75;;
12976;SDS011;6553;48.412;9.514;2023-06-10T13:57:00;3.95;;;3.65;;
12976;SDS011;6553;48.412;9.514;2023-06-10T13:59:27;4.72;;;4.32;;
12976;SDS011;6553;48.412;9.514;2023-06-10T14:01:53;4.50;;;4.10;;
12976;SDS011;6553;48.412;9.514;2023-06-10T14:04:19;3.63;;;3.33;;
12976;SDS011;6553;48.412;9.514;2023-06-10T14:06:44;4.38;;;4.00;;
12976;SDS011;6553;48.412;9.514;2023-06-10T14:09:10;4.10;;;3.80;;
12976;SDS011;6553;48.412;9.514;2023-06-10T14:11:38;3.92;;;3.63;;
12976;SDS011;6553;48.412;9.514;2023-06-10T14:14:03;4.00;;;3.70;;
12976;SDS011;6553;48.412;9.514;2023-06-10T14:16:29;4.00;;;3.65;;
12976;SDS011;6553;48.412;9.514;2023-06-10T14:18:55;4.28;;;3.97;;
12976;SDS011;6553;48.412;9.514;2023-06-10T14:21:21;4.80;;;4.40;;
12976;SDS011;6553;48.412;9.514;2023-06-10T14:23:46;4.05;;;3.75;;
12976;SDS011;6553;48.412;9.514;2023-06-10T14:26:14;3.50;;;3.30;;
12976;SDS011;6553;48.412;9.514;2023-06-10T14:28:40;4.03;;;3.65;;
12976;SDS011;6553;48.412;9.514;2023-06-10T14:31:06;5.18;;;3.80;;
12976;SDS011;6553;48.412;9.514;2023-06-10T14:33:32;4.32;;;3.92;;
12976;SDS011;6553;48.412;9.514;2023-06-10T14:35:58;4.50;;;3.80;;
12976;SDS011;6553;48.412;9.514;2023-06-10T14:38:24;4.07;;;3.78;;
12976;SDS011;6553;48.412;9.514;2023-06-10T14:40:51;4.53;;;4.13;;
12976;SDS011;6553;48.412;9.514;2023-06-10T14:43:17;4.45;;;4.15;;
12976;SDS011;6553;48.412;9.514;2023-06-10T14:45:43;4.63;;;4.10;;
12976;SDS011;6553;48.412;9.514;2023-06-10T14:48:10;6.07;;;5.45;;
12976;SDS011;6553;48.412;9.514;2023-06-10T14:50:37;7.82;;;5.25;;
12976;SDS011;6553;48.412;9.514;2023-06-10T14:53:06;6.13;;;5.53;;
12976;SDS011;6553;48.412;9.514;2023-06-10T14:55:31;8.27;;;6.40;;
12976;SDS011;6553;48.412;9.514;2023-06-10T14:57:57;9.43;;;7.60;;
12976;SDS011;6553;48.412;9.514;2023-06-10T15:00:23;9.52;;;8.07;;
12976;SDS011;6553;48.412;9.514;2023-06-10T15:02:50;12.45;;;8.02;;
12976;SDS011;6553;48.412;9.514;2023-06-10T15:05:17;15.45;;;13.45;;
12976;SDS011;6553;48.412;9.514;2023-06-10T15:07:46;18.80;;;13.80;;
12976;SDS011;6553;48.412;9.514;2023-06-10T15:10:12;25.33;;;17.27;;
12976;SDS011;6553;48.412;9.514;2023-06-10T15:12:38;17.75;;;13.30;;
12976;SDS011;6553;48.412;9.514;2023-06-10T15:15:04;19.17;;;12.93;;
12976;SDS011;6553;48.412;9.514;2023-06-10T15:17:30;20.05;;;15.73;;
12976;SDS011;6553;48.412;9.514;2023-06-10T15:19:56;24.92;;;18.02;;
12976;SDS011;6553;48.412;9.514;2023-06-10T15:22:22;38.08;;;25.63;;
12976;SDS011;6553;48.412;9.514;2023-06-10T15:24:47;74.53;;;47.80;;
12976;SDS011;6553;48.412;9.514;2023-06-10T15:27:13;87.53;;;51.72;;
12976;SDS011;6553;48.412;9.514;2023-06-10T15:29:39;76.85;;;48.58;;